RYR1AK EPKK-LGSA
Flight info
| Callsign | RYR1AK |
|---|---|
| Flight time | 2h 10m |
| Altitude | 37000 |
| Route | BABKO DCT NIDOK DCT BALAP DCT PARAK DCT IBISI DCT KRATO DCT MAKED UL617 SKP UM749 ATV UP169 MANOK UL612 RUSOS |
| Aircraft | B38M/M-SADE3FGILRWY/SB1 |
Departure
| Time | 2026-05-04 16:43 |
|---|---|
| Airport | Kraków John Paul II International Airport (EPKK) |
Arrival
| Time | 2026-05-04 18:54 |
|---|---|
| Airport | Chania International Airport (LGSA) |
| Time | Latitude | Longitude | Altitude | Speed | Heading |
|---|---|---|---|---|---|
| 2026-05-04 16:13 | 50.07596 | 19.80231 | 792 ft | 0 kts | 347° |
| 2026-05-04 16:40 | 50.07623 | 19.80222 | 791 ft | 7 kts | 352° |
| 2026-05-04 16:41 | 50.07704 | 19.80384 | 791 ft | 10 kts | 1° |
| 2026-05-04 16:41 | 50.07968 | 19.80292 | 790 ft | 16 kts | 347° |
| 2026-05-04 16:42 | 50.07954 | 19.79771 | 790 ft | 75 kts | 258° |
| 2026-05-04 16:43 | 50.07552 | 19.76837 | 1133 ft | 174 kts | 258° |
| 2026-05-04 16:43 | 50.07038 | 19.73134 | 2786 ft | 184 kts | 256° |
| 2026-05-04 16:43 | 50.06736 | 19.71082 | 3272 ft | 206 kts | 256° |
| 2026-05-04 16:44 | 50.02457 | 19.64812 | 6124 ft | 264 kts | 169° |
| 2026-05-04 16:45 | 49.98796 | 19.66108 | 7946 ft | 275 kts | 168° |
| 2026-05-04 16:46 | 49.93058 | 19.68061 | 10452 ft | 294 kts | 168° |
| 2026-05-04 16:46 | 49.88811 | 19.69286 | 11438 ft | 322 kts | 182° |
| 2026-05-04 16:47 | 49.85291 | 19.67512 | 12749 ft | 328 kts | 208° |
| 2026-05-04 16:47 | 49.81225 | 19.64107 | 14304 ft | 337 kts | 209° |
| 2026-05-04 16:48 | 49.74950 | 19.58742 | 16430 ft | 350 kts | 210° |
| 2026-05-04 16:48 | 49.72800 | 19.56897 | 17129 ft | 355 kts | 210° |
| 2026-05-04 16:49 | 49.68428 | 19.53151 | 18447 ft | 363 kts | 210° |
| 2026-05-04 16:49 | 49.63966 | 19.49334 | 19592 ft | 370 kts | 210° |
| 2026-05-04 16:50 | 49.59439 | 19.45370 | 20686 ft | 378 kts | 211° |
| 2026-05-04 16:50 | 49.54854 | 19.41272 | 21784 ft | 384 kts | 211° |
| 2026-05-04 16:51 | 49.50179 | 19.37114 | 22864 ft | 392 kts | 211° |
| 2026-05-04 16:51 | 49.47811 | 19.35010 | 23389 ft | 395 kts | 211° |
| 2026-05-04 16:51 | 49.43009 | 19.30753 | 24261 ft | 402 kts | 211° |
| 2026-05-04 16:52 | 49.38114 | 19.26474 | 25101 ft | 409 kts | 206° |
| 2026-05-04 16:52 | 49.35379 | 19.25269 | 25542 ft | 412 kts | 185° |
| 2026-05-04 16:53 | 49.29688 | 19.26468 | 26274 ft | 419 kts | 169° |
| 2026-05-04 16:53 | 49.20999 | 19.28766 | 27447 ft | 426 kts | 169° |
| 2026-05-04 16:54 | 49.18071 | 19.29581 | 27828 ft | 429 kts | 169° |
| 2026-05-04 16:55 | 49.06198 | 19.32901 | 29321 ft | 439 kts | 169° |
| 2026-05-04 16:55 | 49.00161 | 19.34584 | 30026 ft | 444 kts | 169° |
| 2026-05-04 16:56 | 48.94054 | 19.36283 | 30611 ft | 449 kts | 169° |
| 2026-05-04 16:56 | 48.84776 | 19.38858 | 31466 ft | 455 kts | 169° |
| 2026-05-04 16:57 | 48.81654 | 19.39723 | 31752 ft | 457 kts | 169° |
| 2026-05-04 16:57 | 48.75407 | 19.41447 | 32273 ft | 462 kts | 169° |
| 2026-05-04 16:58 | 48.65855 | 19.44076 | 33042 ft | 468 kts | 169° |
| 2026-05-04 16:58 | 48.62644 | 19.44959 | 33313 ft | 470 kts | 169° |
| 2026-05-04 16:59 | 48.56195 | 19.46730 | 33981 ft | 470 kts | 169° |
| 2026-05-04 17:00 | 48.43341 | 19.50247 | 35109 ft | 470 kts | 169° |
| 2026-05-04 17:00 | 48.33695 | 19.52874 | 35893 ft | 469 kts | 169° |
| 2026-05-04 17:01 | 48.27268 | 19.54619 | 36399 ft | 469 kts | 169° |
| 2026-05-04 17:01 | 48.20849 | 19.56355 | 36864 ft | 469 kts | 169° |
| 2026-05-04 17:02 | 48.14417 | 19.58089 | 37067 ft | 470 kts | 169° |
| 2026-05-04 17:03 | 48.04794 | 19.60675 | 37053 ft | 469 kts | 169° |
| 2026-05-04 17:03 | 47.95164 | 19.63254 | 37056 ft | 469 kts | 169° |
| 2026-05-04 17:04 | 47.82292 | 19.66684 | 37053 ft | 470 kts | 169° |
| 2026-05-04 17:05 | 47.69422 | 19.70098 | 37051 ft | 470 kts | 169° |
| 2026-05-04 17:06 | 47.59809 | 19.72635 | 37049 ft | 470 kts | 169° |
| 2026-05-04 17:07 | 47.51200 | 19.74901 | 37049 ft | 470 kts | 169° |
| 2026-05-04 17:07 | 47.43673 | 19.76875 | 37051 ft | 470 kts | 169° |
| 2026-05-04 17:08 | 47.34021 | 19.79398 | 37047 ft | 470 kts | 169° |
| 2026-05-04 17:09 | 47.27620 | 19.81066 | 37048 ft | 470 kts | 169° |
| 2026-05-04 17:09 | 47.21139 | 19.82751 | 37048 ft | 470 kts | 169° |
| 2026-05-04 17:10 | 47.05048 | 19.86916 | 37048 ft | 470 kts | 169° |
| 2026-05-04 17:11 | 46.98650 | 19.88565 | 37047 ft | 470 kts | 169° |
| 2026-05-04 17:12 | 46.88945 | 19.91059 | 37048 ft | 470 kts | 169° |
| 2026-05-04 17:13 | 46.72826 | 19.95181 | 37051 ft | 471 kts | 169° |
| 2026-05-04 17:14 | 46.59968 | 19.98450 | 37056 ft | 471 kts | 169° |
| 2026-05-04 17:15 | 46.50244 | 20.00913 | 37057 ft | 471 kts | 169° |
| 2026-05-04 17:16 | 46.37381 | 20.04157 | 37060 ft | 471 kts | 169° |
| 2026-05-04 17:17 | 46.24484 | 20.07393 | 37061 ft | 471 kts | 169° |
| 2026-05-04 17:17 | 46.14840 | 20.10191 | 37054 ft | 468 kts | 157° |
| 2026-05-04 17:18 | 46.11791 | 20.11848 | 37048 ft | 470 kts | 158° |
| 2026-05-04 17:19 | 45.99501 | 20.18273 | 37070 ft | 470 kts | 158° |
| 2026-05-04 17:20 | 45.87198 | 20.24688 | 37073 ft | 471 kts | 158° |
| 2026-05-04 17:20 | 45.77957 | 20.29487 | 37067 ft | 471 kts | 158° |
| 2026-05-04 17:21 | 45.65626 | 20.35864 | 37071 ft | 471 kts | 158° |
| 2026-05-04 17:22 | 45.59455 | 20.39044 | 37071 ft | 472 kts | 158° |
| 2026-05-04 17:23 | 45.47102 | 20.45388 | 37081 ft | 472 kts | 158° |
| 2026-05-04 17:24 | 45.37825 | 20.50132 | 37079 ft | 473 kts | 158° |
| 2026-05-04 17:25 | 45.25477 | 20.56423 | 37073 ft | 473 kts | 158° |
| 2026-05-04 17:26 | 45.13055 | 20.62721 | 37083 ft | 475 kts | 158° |
| 2026-05-04 17:27 | 44.97606 | 20.70512 | 37069 ft | 467 kts | 160° |
| 2026-05-04 17:28 | 44.85371 | 20.76652 | 37078 ft | 467 kts | 160° |
| 2026-05-04 17:29 | 44.67033 | 20.85802 | 37081 ft | 465 kts | 160° |
| 2026-05-04 17:31 | 44.51788 | 20.93362 | 37082 ft | 465 kts | 160° |
| 2026-05-04 17:32 | 44.36594 | 21.00856 | 37090 ft | 464 kts | 160° |
| 2026-05-04 17:33 | 44.24398 | 21.06841 | 37087 ft | 464 kts | 160° |
| 2026-05-04 17:34 | 44.13232 | 21.12297 | 37085 ft | 465 kts | 160° |
| 2026-05-04 17:35 | 43.97944 | 21.19732 | 37083 ft | 466 kts | 160° |
| 2026-05-04 17:36 | 43.91820 | 21.22699 | 37086 ft | 467 kts | 160° |
| 2026-05-04 17:36 | 43.85681 | 21.25667 | 37088 ft | 467 kts | 160° |
| 2026-05-04 17:37 | 43.79540 | 21.28629 | 37087 ft | 468 kts | 160° |
| 2026-05-04 17:37 | 43.73390 | 21.31590 | 37082 ft | 468 kts | 160° |
| 2026-05-04 17:38 | 43.67238 | 21.34545 | 37083 ft | 468 kts | 160° |
| 2026-05-04 17:38 | 43.61088 | 21.37492 | 37086 ft | 468 kts | 160° |
| 2026-05-04 17:39 | 43.51855 | 21.41904 | 37081 ft | 468 kts | 160° |
| 2026-05-04 17:39 | 43.45704 | 21.44836 | 37081 ft | 468 kts | 160° |
| 2026-05-04 17:40 | 43.39592 | 21.47743 | 37088 ft | 468 kts | 160° |
| 2026-05-04 17:40 | 43.33435 | 21.50665 | 37080 ft | 468 kts | 160° |
| 2026-05-04 17:41 | 43.27241 | 21.53599 | 37084 ft | 468 kts | 160° |
| 2026-05-04 17:41 | 43.21119 | 21.56493 | 37089 ft | 468 kts | 160° |
| 2026-05-04 17:42 | 43.14957 | 21.59400 | 37084 ft | 468 kts | 160° |
| 2026-05-04 17:42 | 43.08751 | 21.62321 | 37087 ft | 469 kts | 160° |
| 2026-05-04 17:43 | 43.02624 | 21.65200 | 37095 ft | 469 kts | 160° |
| 2026-05-04 17:43 | 42.96445 | 21.68087 | 37089 ft | 469 kts | 161° |
| 2026-05-04 17:44 | 42.90232 | 21.70826 | 37095 ft | 469 kts | 161° |
| 2026-05-04 17:44 | 42.84026 | 21.73575 | 37089 ft | 469 kts | 161° |
| 2026-05-04 17:45 | 42.77808 | 21.76325 | 37092 ft | 470 kts | 161° |
| 2026-05-04 17:45 | 42.71591 | 21.79069 | 37099 ft | 470 kts | 161° |
| 2026-05-04 17:46 | 42.65358 | 21.81814 | 37095 ft | 471 kts | 161° |
| 2026-05-04 17:46 | 42.59135 | 21.84548 | 37096 ft | 470 kts | 161° |
| 2026-05-04 17:47 | 42.52902 | 21.87282 | 37106 ft | 471 kts | 161° |
| 2026-05-04 17:47 | 42.46663 | 21.90012 | 37097 ft | 471 kts | 161° |
| 2026-05-04 17:48 | 42.40431 | 21.92733 | 37097 ft | 471 kts | 162° |
| 2026-05-04 17:48 | 42.34233 | 21.95435 | 37093 ft | 471 kts | 162° |
| 2026-05-04 17:49 | 42.27998 | 21.98146 | 37090 ft | 471 kts | 162° |
| 2026-05-04 17:49 | 42.21764 | 22.00852 | 37097 ft | 471 kts | 162° |
| 2026-05-04 17:50 | 42.15526 | 22.03554 | 37092 ft | 471 kts | 162° |
| 2026-05-04 17:50 | 42.09284 | 22.06252 | 37087 ft | 471 kts | 162° |
| 2026-05-04 17:51 | 42.03082 | 22.09068 | 37088 ft | 471 kts | 159° |
| 2026-05-04 17:51 | 41.96915 | 22.12043 | 37082 ft | 470 kts | 160° |
| 2026-05-04 17:52 | 41.90761 | 22.14984 | 37084 ft | 470 kts | 160° |
| 2026-05-04 17:52 | 41.84581 | 22.17931 | 37078 ft | 471 kts | 160° |
| 2026-05-04 17:53 | 41.78408 | 22.20868 | 37078 ft | 471 kts | 160° |
| 2026-05-04 17:53 | 41.72239 | 22.23797 | 37077 ft | 470 kts | 160° |
| 2026-05-04 17:54 | 41.66066 | 22.26723 | 37071 ft | 471 kts | 160° |
| 2026-05-04 17:54 | 41.59893 | 22.29642 | 37078 ft | 471 kts | 160° |
| 2026-05-04 17:55 | 41.53717 | 22.32557 | 37079 ft | 470 kts | 160° |
| 2026-05-04 17:55 | 41.47586 | 22.35444 | 37076 ft | 470 kts | 160° |
| 2026-05-04 17:56 | 41.41373 | 22.38365 | 37074 ft | 470 kts | 160° |
| 2026-05-04 17:56 | 41.35243 | 22.41240 | 37072 ft | 470 kts | 160° |
| 2026-05-04 17:57 | 41.29065 | 22.44132 | 37070 ft | 471 kts | 160° |
| 2026-05-04 17:57 | 41.22891 | 22.47017 | 37067 ft | 471 kts | 160° |
| 2026-05-04 17:58 | 41.16711 | 22.49900 | 37069 ft | 471 kts | 160° |
| 2026-05-04 17:58 | 41.10694 | 22.53264 | 37072 ft | 469 kts | 150° |
| 2026-05-04 17:59 | 41.04932 | 22.57362 | 37068 ft | 470 kts | 151° |
| 2026-05-04 18:00 | 40.96287 | 22.63502 | 37062 ft | 470 kts | 151° |
| 2026-05-04 18:00 | 40.90526 | 22.67587 | 37061 ft | 470 kts | 151° |
| 2026-05-04 18:01 | 40.84760 | 22.71667 | 37065 ft | 470 kts | 151° |
| 2026-05-04 18:01 | 40.78988 | 22.75743 | 37068 ft | 470 kts | 151° |
| 2026-05-04 18:02 | 40.70330 | 22.81841 | 37073 ft | 471 kts | 151° |
| 2026-05-04 18:02 | 40.64553 | 22.85901 | 37074 ft | 470 kts | 151° |
| 2026-05-04 18:03 | 40.58782 | 22.89948 | 37074 ft | 470 kts | 151° |
| 2026-05-04 18:03 | 40.53037 | 22.93969 | 37076 ft | 471 kts | 152° |
| 2026-05-04 18:04 | 40.47222 | 22.98032 | 37078 ft | 471 kts | 152° |
| 2026-05-04 18:05 | 40.38163 | 23.02853 | 37079 ft | 471 kts | 159° |
| 2026-05-04 18:05 | 40.32040 | 23.05904 | 37075 ft | 471 kts | 159° |
| 2026-05-04 18:06 | 40.22855 | 23.10465 | 37074 ft | 471 kts | 159° |
| 2026-05-04 18:06 | 40.16716 | 23.13505 | 37082 ft | 472 kts | 159° |
| 2026-05-04 18:07 | 40.10578 | 23.16540 | 37076 ft | 471 kts | 159° |
| 2026-05-04 18:07 | 40.04439 | 23.19569 | 37076 ft | 471 kts | 159° |
| 2026-05-04 18:08 | 39.98307 | 23.22589 | 37074 ft | 472 kts | 159° |
| 2026-05-04 18:08 | 39.92167 | 23.25608 | 37082 ft | 472 kts | 159° |
| 2026-05-04 18:09 | 39.79867 | 23.31639 | 37081 ft | 472 kts | 160° |
| 2026-05-04 18:10 | 39.73712 | 23.34648 | 37080 ft | 473 kts | 160° |
| 2026-05-04 18:10 | 39.67551 | 23.37651 | 37084 ft | 473 kts | 160° |
| 2026-05-04 18:11 | 39.61383 | 23.40652 | 37085 ft | 474 kts | 160° |
| 2026-05-04 18:11 | 39.55214 | 23.43648 | 37086 ft | 474 kts | 160° |
| 2026-05-04 18:12 | 39.49034 | 23.46644 | 37090 ft | 475 kts | 160° |
| 2026-05-04 18:12 | 39.42880 | 23.49622 | 37097 ft | 475 kts | 160° |
| 2026-05-04 18:13 | 39.36690 | 23.52621 | 37101 ft | 476 kts | 160° |
| 2026-05-04 18:14 | 39.27389 | 23.57112 | 37102 ft | 476 kts | 160° |
| 2026-05-04 18:14 | 39.21179 | 23.60098 | 37102 ft | 476 kts | 160° |
| 2026-05-04 18:15 | 39.14793 | 23.62013 | 37115 ft | 472 kts | 175° |
| 2026-05-04 18:15 | 39.08237 | 23.63041 | 37105 ft | 475 kts | 175° |
| 2026-05-04 18:16 | 39.01663 | 23.64023 | 37107 ft | 476 kts | 175° |
| 2026-05-04 18:16 | 38.95076 | 23.64997 | 37109 ft | 477 kts | 175° |
| 2026-05-04 18:17 | 38.85157 | 23.66458 | 37113 ft | 479 kts | 175° |
| 2026-05-04 18:18 | 38.75206 | 23.67920 | 37122 ft | 481 kts | 175° |
| 2026-05-04 18:18 | 38.68549 | 23.68896 | 37109 ft | 482 kts | 175° |
| 2026-05-04 18:19 | 38.58544 | 23.70358 | 37128 ft | 483 kts | 175° |
| 2026-05-04 18:19 | 38.51852 | 23.71334 | 37126 ft | 484 kts | 175° |
| 2026-05-04 18:20 | 38.45157 | 23.72309 | 37131 ft | 485 kts | 176° |
| 2026-05-04 18:20 | 38.38492 | 23.73277 | 37134 ft | 486 kts | 175° |
| 2026-05-04 18:21 | 38.31777 | 23.74252 | 37137 ft | 486 kts | 176° |
| 2026-05-04 18:21 | 38.25049 | 23.75226 | 37131 ft | 487 kts | 176° |
| 2026-05-04 18:22 | 38.18324 | 23.76198 | 37126 ft | 487 kts | 176° |
| 2026-05-04 18:22 | 38.11576 | 23.77175 | 37137 ft | 488 kts | 176° |
| 2026-05-04 18:23 | 38.04819 | 23.78151 | 37132 ft | 488 kts | 176° |
| 2026-05-04 18:23 | 37.98075 | 23.79124 | 37132 ft | 488 kts | 176° |
| 2026-05-04 18:24 | 37.92411 | 23.79940 | 37125 ft | 489 kts | 176° |
| 2026-05-04 18:24 | 37.85708 | 23.80988 | 37122 ft | 489 kts | 175° |
| 2026-05-04 18:25 | 37.78952 | 23.82079 | 37128 ft | 490 kts | 175° |
| 2026-05-04 18:25 | 37.72197 | 23.83165 | 37127 ft | 490 kts | 176° |
| 2026-05-04 18:26 | 37.65430 | 23.84251 | 37127 ft | 490 kts | 176° |
| 2026-05-04 18:26 | 37.58666 | 23.85334 | 37124 ft | 490 kts | 176° |
| 2026-05-04 18:27 | 37.51898 | 23.86416 | 37124 ft | 490 kts | 176° |
| 2026-05-04 18:27 | 37.45131 | 23.87495 | 37126 ft | 490 kts | 176° |
| 2026-05-04 18:28 | 37.38359 | 23.88574 | 37055 ft | 488 kts | 176° |
| 2026-05-04 18:28 | 37.34990 | 23.89110 | 36237 ft | 491 kts | 176° |
| 2026-05-04 18:28 | 37.31569 | 23.89654 | 35238 ft | 500 kts | 176° |
| 2026-05-04 18:29 | 37.28108 | 23.90203 | 34554 ft | 501 kts | 176° |
| 2026-05-04 18:29 | 37.24670 | 23.90748 | 34155 ft | 495 kts | 176° |
| 2026-05-04 18:29 | 37.21275 | 23.91287 | 33686 ft | 490 kts | 176° |
| 2026-05-04 18:29 | 37.17902 | 23.91821 | 33097 ft | 487 kts | 175° |
| 2026-05-04 18:30 | 37.11232 | 23.92875 | 32041 ft | 480 kts | 175° |
| 2026-05-04 18:30 | 37.07927 | 23.93397 | 31538 ft | 476 kts | 175° |
| 2026-05-04 18:30 | 37.04651 | 23.93914 | 31032 ft | 473 kts | 175° |
| 2026-05-04 18:31 | 37.01392 | 23.94427 | 30534 ft | 471 kts | 175° |
| 2026-05-04 18:31 | 36.98148 | 23.94938 | 30000 ft | 468 kts | 175° |
| 2026-05-04 18:31 | 36.94925 | 23.95445 | 29440 ft | 465 kts | 175° |
| 2026-05-04 18:31 | 36.91732 | 23.95947 | 28955 ft | 461 kts | 175° |
| 2026-05-04 18:32 | 36.88569 | 23.96444 | 28480 ft | 457 kts | 175° |
| 2026-05-04 18:32 | 36.85430 | 23.96937 | 28000 ft | 453 kts | 175° |
| 2026-05-04 18:32 | 36.82315 | 23.97425 | 27528 ft | 449 kts | 175° |
| 2026-05-04 18:32 | 36.79263 | 23.97903 | 27071 ft | 446 kts | 175° |
| 2026-05-04 18:33 | 36.76190 | 23.98384 | 26597 ft | 443 kts | 175° |
| 2026-05-04 18:33 | 36.73148 | 23.98860 | 26146 ft | 440 kts | 175° |
| 2026-05-04 18:33 | 36.70119 | 23.99334 | 25701 ft | 437 kts | 175° |
| 2026-05-04 18:33 | 36.67110 | 23.99803 | 25251 ft | 435 kts | 175° |
| 2026-05-04 18:34 | 36.64117 | 24.00271 | 24804 ft | 432 kts | 175° |
| 2026-05-04 18:34 | 36.61141 | 24.00735 | 24362 ft | 430 kts | 174° |
| 2026-05-04 18:34 | 36.58176 | 24.01197 | 23925 ft | 428 kts | 174° |
| 2026-05-04 18:34 | 36.55229 | 24.01656 | 23438 ft | 427 kts | 174° |
| 2026-05-04 18:35 | 36.52288 | 24.02114 | 22956 ft | 424 kts | 174° |
| 2026-05-04 18:35 | 36.49375 | 24.02566 | 22519 ft | 420 kts | 174° |
| 2026-05-04 18:35 | 36.46486 | 24.03015 | 22097 ft | 416 kts | 174° |
| 2026-05-04 18:35 | 36.43628 | 24.03486 | 21657 ft | 414 kts | 170° |
| 2026-05-04 18:36 | 36.40925 | 24.04687 | 21172 ft | 413 kts | 149° |
| 2026-05-04 18:36 | 36.38742 | 24.06913 | 20812 ft | 404 kts | 128° |
| 2026-05-04 18:36 | 36.37071 | 24.09681 | 20447 ft | 398 kts | 124° |
| 2026-05-04 18:36 | 36.35424 | 24.12420 | 20038 ft | 395 kts | 124° |
| 2026-05-04 18:37 | 36.33784 | 24.15146 | 19646 ft | 393 kts | 124° |
| 2026-05-04 18:37 | 36.32156 | 24.17854 | 19236 ft | 390 kts | 124° |
| 2026-05-04 18:37 | 36.30545 | 24.20533 | 18846 ft | 387 kts | 124° |
| 2026-05-04 18:37 | 36.28936 | 24.23207 | 18466 ft | 385 kts | 124° |
| 2026-05-04 18:38 | 36.27340 | 24.25857 | 18013 ft | 382 kts | 124° |
| 2026-05-04 18:38 | 36.25760 | 24.28477 | 17606 ft | 378 kts | 124° |
| 2026-05-04 18:38 | 36.24195 | 24.31072 | 17215 ft | 374 kts | 125° |
| 2026-05-04 18:38 | 36.22542 | 24.33548 | 16776 ft | 373 kts | 137° |
| 2026-05-04 18:39 | 36.20341 | 24.35190 | 16402 ft | 371 kts | 161° |
| 2026-05-04 18:39 | 36.17820 | 24.35653 | 16061 ft | 366 kts | 184° |
| 2026-05-04 18:39 | 36.15341 | 24.35095 | 15710 ft | 361 kts | 194° |
| 2026-05-04 18:39 | 36.12902 | 24.34403 | 15336 ft | 358 kts | 193° |
| 2026-05-04 18:40 | 36.10477 | 24.33723 | 14966 ft | 356 kts | 193° |
| 2026-05-04 18:40 | 36.08072 | 24.33048 | 14596 ft | 353 kts | 193° |
| 2026-05-04 18:40 | 36.05686 | 24.32378 | 14234 ft | 351 kts | 193° |
| 2026-05-04 18:40 | 36.03311 | 24.31711 | 13856 ft | 349 kts | 193° |
| 2026-05-04 18:41 | 36.00955 | 24.31050 | 13453 ft | 346 kts | 193° |
| 2026-05-04 18:41 | 35.98613 | 24.30394 | 13048 ft | 344 kts | 194° |
| 2026-05-04 18:41 | 35.96281 | 24.29741 | 12648 ft | 342 kts | 194° |
| 2026-05-04 18:41 | 35.94001 | 24.29102 | 12295 ft | 340 kts | 194° |
| 2026-05-04 18:42 | 35.91709 | 24.28461 | 11939 ft | 337 kts | 194° |
| 2026-05-04 18:42 | 35.89426 | 24.27823 | 11580 ft | 334 kts | 194° |
| 2026-05-04 18:42 | 35.87147 | 24.27273 | 11155 ft | 335 kts | 186° |
| 2026-05-04 18:42 | 35.84820 | 24.27426 | 10722 ft | 336 kts | 168° |
| 2026-05-04 18:43 | 35.82605 | 24.28274 | 10393 ft | 332 kts | 156° |
| 2026-05-04 18:43 | 35.80588 | 24.29623 | 10110 ft | 327 kts | 144° |
| 2026-05-04 18:43 | 35.78863 | 24.31389 | 9818 ft | 320 kts | 131° |
| 2026-05-04 18:43 | 35.77499 | 24.33525 | 9448 ft | 315 kts | 118° |
| 2026-05-04 18:44 | 35.76458 | 24.35879 | 9109 ft | 312 kts | 117° |
| 2026-05-04 18:44 | 35.75669 | 24.37359 | 8887 ft | 312 kts | 123° |
| 2026-05-04 18:44 | 35.73881 | 24.40157 | 8448 ft | 310 kts | 128° |
| 2026-05-04 18:44 | 35.72425 | 24.42106 | 8114 ft | 309 kts | 132° |
| 2026-05-04 18:45 | 35.70862 | 24.43913 | 7781 ft | 308 kts | 137° |
| 2026-05-04 18:45 | 35.69199 | 24.45569 | 7452 ft | 307 kts | 141° |
| 2026-05-04 18:45 | 35.67471 | 24.47105 | 7128 ft | 306 kts | 143° |
| 2026-05-04 18:45 | 35.65732 | 24.48615 | 6804 ft | 305 kts | 143° |
| 2026-05-04 18:46 | 35.64001 | 24.50110 | 6530 ft | 302 kts | 144° |
| 2026-05-04 18:46 | 35.62071 | 24.51083 | 6134 ft | 302 kts | 175° |
| 2026-05-04 18:46 | 35.60042 | 24.50743 | 5810 ft | 292 kts | 208° |
| 2026-05-04 18:46 | 35.58412 | 24.49363 | 5571 ft | 281 kts | 221° |
| 2026-05-04 18:47 | 35.56826 | 24.47999 | 5390 ft | 275 kts | 217° |
| 2026-05-04 18:47 | 35.55398 | 24.46872 | 5287 ft | 267 kts | 216° |
| 2026-05-04 18:47 | 35.53840 | 24.45698 | 5145 ft | 259 kts | 214° |
| 2026-05-04 18:47 | 35.52319 | 24.44592 | 5033 ft | 250 kts | 214° |
| 2026-05-04 18:48 | 35.50839 | 24.43535 | 4918 ft | 242 kts | 214° |
| 2026-05-04 18:48 | 35.49415 | 24.42531 | 4792 ft | 232 kts | 214° |
| 2026-05-04 18:48 | 35.48015 | 24.41552 | 4480 ft | 231 kts | 213° |
| 2026-05-04 18:48 | 35.46782 | 24.40401 | 4199 ft | 221 kts | 236° |
| 2026-05-04 18:49 | 35.46190 | 24.38755 | 3977 ft | 206 kts | 265° |
| 2026-05-04 18:49 | 35.46203 | 24.37049 | 3790 ft | 197 kts | 281° |
| 2026-05-04 18:49 | 35.46537 | 24.35453 | 3591 ft | 190 kts | 290° |
| 2026-05-04 18:49 | 35.47003 | 24.33960 | 3382 ft | 185 kts | 292° |
| 2026-05-04 18:50 | 35.47477 | 24.32509 | 3170 ft | 180 kts | 292° |
| 2026-05-04 18:50 | 35.47933 | 24.31112 | 2953 ft | 174 kts | 292° |
| 2026-05-04 18:50 | 35.48373 | 24.29755 | 2730 ft | 168 kts | 292° |
| 2026-05-04 18:50 | 35.48800 | 24.28440 | 2507 ft | 164 kts | 292° |
| 2026-05-04 18:51 | 35.49216 | 24.27159 | 2302 ft | 158 kts | 291° |
| 2026-05-04 18:51 | 35.49613 | 24.25934 | 2100 ft | 151 kts | 291° |
| 2026-05-04 18:51 | 35.49986 | 24.24787 | 1914 ft | 139 kts | 291° |
| 2026-05-04 18:51 | 35.50338 | 24.23705 | 1726 ft | 135 kts | 291° |
| 2026-05-04 18:52 | 35.50685 | 24.22636 | 1525 ft | 136 kts | 291° |
| 2026-05-04 18:52 | 35.51039 | 24.21551 | 1347 ft | 137 kts | 289° |
| 2026-05-04 18:52 | 35.51392 | 24.20458 | 1152 ft | 138 kts | 289° |
| 2026-05-04 18:52 | 35.51745 | 24.19365 | 994 ft | 136 kts | 291° |
| 2026-05-04 18:53 | 35.52093 | 24.18291 | 785 ft | 135 kts | 292° |
| 2026-05-04 18:53 | 35.52448 | 24.17212 | 651 ft | 137 kts | 291° |
| 2026-05-04 18:53 | 35.52799 | 24.16140 | 562 ft | 128 kts | 290° |
| 2026-05-04 18:53 | 35.53057 | 24.15345 | 561 ft | 66 kts | 292° |
| 2026-05-04 18:54 | 35.53216 | 24.14856 | 565 ft | 60 kts | 292° |
| 2026-05-04 18:54 | 35.53358 | 24.14419 | 560 ft | 36 kts | 291° |
| 2026-05-04 18:54 | 35.53412 | 24.14271 | 564 ft | 9 kts | 325° |
| 2026-05-04 18:54 | 35.53477 | 24.14286 | 560 ft | 11 kts | 21° |
| 2026-05-04 18:55 | 35.53558 | 24.14325 | 565 ft | 14 kts | 21° |
| 2026-05-04 18:55 | 35.53688 | 24.14339 | 561 ft | 9 kts | 295° |
| 2026-05-04 18:55 | 35.53715 | 24.14261 | 563 ft | 11 kts | 292° |
| 2026-05-04 18:56 | 35.53746 | 24.14164 | 563 ft | 13 kts | 291° |
| 2026-05-04 18:56 | 35.53783 | 24.14049 | 567 ft | 15 kts | 291° |
| 2026-05-04 18:56 | 35.53823 | 24.13928 | 563 ft | 13 kts | 291° |
| 2026-05-04 18:56 | 35.53849 | 24.13850 | 562 ft | 7 kts | 303° |
| 2026-05-04 18:57 | 35.53896 | 24.13850 | 561 ft | 7 kts | 21° |
| 2026-05-04 18:57 | 35.53922 | 24.13863 | 563 ft | 2 kts | 21° |
| 2026-05-04 18:57 | 35.53930 | 24.13866 | 563 ft | 0 kts | 21° |